createdAt,value
2019-06-26T00:01:30.486Z,65.22
2019-06-26T00:04:00.425Z,65.62
2019-06-26T00:06:30.017Z,65.21
2019-06-26T00:09:00.229Z,64.97
2019-06-26T00:11:30.354Z,65.44
2019-06-26T00:13:59.931Z,65.23
2019-06-26T00:16:29.280Z,65.38
2019-06-26T00:18:58.278Z,66.08
2019-06-26T00:21:27.704Z,65.39
2019-06-26T00:23:58.782Z,66.43
2019-06-26T00:26:28.257Z,65.71
2019-06-26T00:28:57.979Z,65.77
2019-06-26T00:31:27.964Z,66.27
2019-06-26T00:33:57.005Z,66.42
2019-06-26T00:36:26.961Z,67.16
2019-06-26T00:38:56.440Z,66.79
2019-06-26T00:41:25.998Z,66.73
2019-06-26T00:43:55.680Z,67.49
2019-06-26T00:46:26.073Z,67.57
2019-06-26T00:48:55.989Z,67.39
2019-06-26T00:51:25.715Z,67.32
2019-06-26T00:53:55.485Z,68.25
2019-06-26T00:56:24.637Z,68.68
2019-06-26T00:58:55.153Z,69.12
2019-06-26T01:01:24.196Z,68.92
2019-06-26T01:03:53.452Z,69.97
2019-06-26T01:06:27.888Z,69.71
2019-06-26T01:08:58.053Z,69.75
2019-06-26T01:11:28.431Z,69.81
2019-06-26T01:13:59.164Z,70.01
2019-06-26T01:16:28.060Z,70.04
2019-06-26T01:18:58.066Z,69.89
2019-06-26T01:21:27.011Z,70.53
2019-06-26T01:23:57.067Z,71.14
2019-06-26T01:26:26.744Z,71.56
2019-06-26T01:28:56.288Z,71.18
2019-06-26T01:31:25.913Z,71.79
2019-06-26T01:33:55.916Z,72.24
2019-06-26T01:36:26.451Z,72.90
2019-06-26T01:38:57.189Z,73.04
2019-06-26T01:41:29.717Z,72.95
2019-06-26T01:44:13.544Z,73.41
2019-06-26T01:46:27.650Z,72.86
2019-06-26T01:48:56.621Z,73.41
2019-06-26T01:51:26.319Z,74.58
2019-06-26T01:53:56.253Z,74.83
2019-06-26T01:56:25.132Z,74.58
2019-06-26T01:58:54.768Z,74.86
2019-06-26T02:01:24.328Z,75.90
2019-06-26T02:03:54.833Z,75.16
2019-06-26T02:06:24.397Z,75.43
2019-06-26T02:08:54.394Z,74.99
2019-06-26T02:11:24.190Z,74.98
2019-06-26T02:13:53.284Z,75.64
2019-06-26T02:16:22.617Z,75.58
2019-06-26T02:18:54.430Z,75.36
2019-06-26T02:21:23.382Z,75.80
2019-06-26T02:23:52.513Z,75.25
2019-06-26T02:26:21.501Z,75.25
2019-06-26T02:28:52.270Z,75.64
2019-06-26T02:31:22.513Z,75.72
2019-06-26T02:33:52.829Z,75.62
2019-06-26T02:36:22.626Z,75.60
2019-06-26T02:38:51.547Z,76.31
2019-06-26T02:41:20.712Z,75.68
2019-06-26T02:43:50.448Z,76.13
2019-06-26T02:46:21.407Z,76.35
2019-06-26T02:48:51.744Z,76.55
2019-06-26T02:51:21.191Z,77.03
2019-06-26T02:53:50.229Z,77.40
2019-06-26T02:56:19.180Z,77.21
2019-06-26T02:58:48.722Z,77.59
2019-06-26T03:01:17.586Z,77.07
2019-06-26T03:03:47.124Z,78.31
2019-06-26T03:06:16.097Z,78.63
2019-06-26T03:08:46.192Z,78.43
2019-06-26T03:11:16.044Z,79.13
2019-06-26T03:13:46.335Z,78.98
2019-06-26T03:16:15.525Z,79.01
2019-06-26T03:18:44.531Z,78.56
2019-06-26T03:21:15.819Z,78.79
2019-06-26T03:23:44.978Z,78.53
2019-06-26T03:26:13.994Z,78.28
2019-06-26T03:28:42.984Z,77.81
2019-06-26T03:31:12.557Z,77.85
2019-06-26T03:33:43.297Z,77.87
2019-06-26T03:36:12.890Z,77.86
2019-06-26T03:38:42.403Z,78.62
2019-06-26T03:41:11.296Z,78.21
2019-06-26T03:43:40.239Z,78.26
2019-06-26T03:46:10.642Z,78.63
2019-06-26T03:48:40.164Z,77.92
2019-06-26T03:51:09.255Z,77.64
2019-06-26T03:53:38.148Z,77.61
2019-06-26T03:56:07.127Z,77.77
2019-06-26T03:58:37.172Z,77.70
2019-06-26T04:01:06.919Z,77.84
2019-06-26T04:03:35.846Z,77.75
2019-06-26T04:06:05.060Z,77.46
2019-06-26T04:08:34.106Z,77.27
2019-06-26T04:11:03.222Z,78.37
2019-06-26T04:13:32.306Z,77.74
2019-06-26T04:16:01.395Z,77.36
2019-06-26T04:18:30.233Z,77.82
2019-06-26T04:21:00.476Z,76.99
2019-06-26T04:23:30.810Z,77.44
2019-06-26T04:25:59.763Z,77.59
2019-06-26T04:28:30.423Z,77.22
2019-06-26T04:31:00.573Z,77.50
2019-06-26T04:33:29.549Z,77.54
2019-06-26T04:36:00.349Z,76.83
2019-06-26T04:38:29.506Z,77.06
2019-06-26T04:40:58.116Z,76.71
2019-06-26T04:43:27.151Z,76.48
2019-06-26T04:46:00.182Z,76.15
2019-06-26T04:48:30.679Z,76.25
2019-06-26T04:51:00.732Z,76.27
2019-06-26T04:53:30.390Z,76.24
2019-06-26T04:55:59.380Z,76.66
2019-06-26T04:58:28.630Z,76.84
2019-06-26T05:00:57.622Z,76.73
2019-06-26T05:03:27.247Z,76.12
2019-06-26T05:05:56.294Z,75.96
2019-06-26T05:08:25.456Z,76.02
2019-06-26T05:10:54.674Z,75.65
2019-06-26T05:13:24.354Z,76.22
2019-06-26T05:15:55.370Z,75.62
2019-06-26T05:18:24.489Z,76.05
2019-06-26T05:20:54.629Z,75.87
2019-06-26T05:23:23.679Z,75.78
2019-06-26T05:25:52.758Z,76.64
2019-06-26T05:28:23.243Z,76.68
2019-06-26T05:30:52.339Z,75.54
2019-06-26T05:33:24.385Z,75.60
2019-06-26T05:35:54.681Z,74.98
2019-06-26T05:38:26.080Z,74.67
2019-06-26T05:40:55.711Z,74.44
2019-06-26T05:43:26.009Z,74.35
2019-06-26T05:45:55.008Z,73.98
2019-06-26T05:48:24.518Z,74.62
2019-06-26T05:50:53.573Z,73.97
2019-06-26T05:53:23.875Z,73.97
2019-06-26T05:55:52.832Z,74.16
2019-06-26T05:58:23.000Z,74.14
2019-06-26T06:00:52.041Z,73.46
2019-06-26T06:03:22.195Z,73.39
2019-06-26T06:05:51.811Z,73.28
2019-06-26T06:08:21.448Z,72.76
2019-06-26T06:10:50.410Z,73.24
2019-06-26T06:13:20.348Z,73.25
2019-06-26T06:15:49.464Z,72.91
2019-06-26T06:18:19.149Z,73.35
2019-06-26T06:20:48.101Z,72.62
2019-06-26T06:23:17.863Z,72.69
2019-06-26T06:25:46.860Z,72.63
2019-06-26T06:28:16.242Z,72.71
2019-06-26T06:30:45.728Z,71.88
2019-06-26T06:33:15.796Z,71.50
2019-06-26T06:35:45.776Z,71.17
2019-06-26T06:38:15.908Z,71.42
2019-06-26T06:40:46.294Z,71.50
2019-06-26T06:43:21.224Z,70.76
2019-06-26T06:45:50.517Z,70.83
2019-06-26T06:48:21.408Z,71.07
2019-06-26T06:50:52.490Z,70.66
2019-06-26T06:53:22.315Z,70.30
2019-06-26T06:55:53.246Z,69.79
2019-06-26T06:58:22.372Z,69.72
2019-06-26T07:00:51.934Z,69.99
2019-06-26T07:03:21.115Z,70.30
2019-06-26T07:05:50.955Z,69.61
2019-06-26T07:08:20.431Z,70.81
2019-06-26T07:10:49.378Z,70.60
2019-06-26T07:13:18.330Z,71.30
2019-06-26T07:15:47.778Z,71.16
2019-06-26T07:18:17.880Z,71.22
2019-06-26T07:20:46.849Z,70.87
2019-06-26T07:23:15.732Z,70.86
2019-06-26T07:25:44.643Z,70.81
2019-06-26T07:28:14.562Z,70.88
2019-06-26T07:30:44.595Z,70.32
2019-06-26T07:33:13.669Z,70.46
2019-06-26T07:35:43.409Z,70.68
2019-06-26T07:38:12.464Z,70.84
2019-06-26T07:40:41.440Z,70.25
2019-06-26T07:43:10.504Z,70.30
2019-06-26T07:45:39.626Z,69.67
2019-06-26T07:48:09.172Z,69.19
2019-06-26T07:50:39.268Z,68.54
2019-06-26T07:53:08.159Z,67.78
2019-06-26T07:55:40.470Z,67.39
2019-06-26T07:58:07.514Z,67.13
2019-06-26T08:00:37.750Z,66.17
2019-06-26T08:03:07.798Z,65.41
2019-06-26T08:05:36.991Z,65.03
2019-06-26T08:08:06.055Z,63.87
2019-06-26T08:10:35.550Z,63.93
2019-06-26T08:13:05.353Z,63.72
2019-06-26T08:15:34.300Z,63.13
2019-06-26T08:18:03.825Z,62.21
2019-06-26T08:20:51.549Z,60.64
2019-06-26T08:23:03.623Z,60.28
2019-06-26T08:25:33.096Z,59.43
2019-06-26T08:28:03.086Z,60.64
2019-06-26T08:30:32.567Z,60.40
2019-06-26T08:33:03.123Z,60.14
2019-06-26T08:35:32.214Z,59.63
2019-06-26T08:38:11.103Z,58.09
2019-06-26T08:40:30.883Z,58.51
2019-06-26T08:43:00.446Z,57.07
2019-06-26T08:45:31.453Z,55.86
2019-06-26T08:48:16.646Z,55.95
2019-06-26T08:50:30.619Z,54.82
2019-06-26T08:53:00.796Z,53.95
2019-06-26T08:55:29.788Z,53.39
2019-06-26T08:57:59.572Z,53.39
2019-06-26T09:00:29.714Z,52.81
2019-06-26T09:02:58.715Z,53.16
2019-06-26T09:05:27.747Z,52.81
2019-06-26T09:07:57.375Z,51.74
2019-06-26T09:28:41.239Z,49.12
2019-06-26T09:31:10.793Z,48.72
2019-06-26T09:33:39.660Z,49.20
2019-06-26T09:36:09.768Z,48.84
2019-06-26T09:38:38.612Z,48.44
2019-06-26T09:41:07.745Z,47.96
2019-06-26T09:43:36.686Z,47.25
2019-06-26T09:46:05.594Z,48.31
2019-06-26T09:48:51.627Z,47.85
2019-06-26T09:51:04.627Z,48.22
2019-06-26T09:53:46.557Z,47.97
2019-06-26T09:56:02.308Z,46.67
2019-06-26T09:58:32.736Z,46.89
2019-06-26T10:01:01.607Z,46.69
2019-06-26T10:03:30.481Z,46.58
2019-06-26T10:05:59.341Z,46.54
2019-06-26T10:08:29.238Z,46.40
2019-06-26T10:10:58.140Z,46.39
2019-06-26T10:13:27.418Z,44.39
2019-06-26T10:15:59.477Z,45.93
2019-06-26T10:18:25.123Z,45.70
2019-06-26T10:20:54.600Z,45.45
2019-06-26T10:23:23.460Z,45.54
2019-06-26T10:25:52.326Z,45.27
2019-06-26T10:28:22.087Z,44.76
2019-06-26T10:30:50.720Z,45.12
2019-06-26T10:33:19.579Z,43.02
2019-06-26T10:35:48.424Z,44.36
2019-06-26T10:38:17.867Z,45.48
2019-06-26T10:40:46.792Z,45.43
2019-06-26T10:43:15.676Z,44.18
2019-06-26T10:45:44.519Z,43.86
2019-06-26T10:48:14.717Z,43.90
2019-06-26T10:50:51.929Z,44.40
2019-06-26T10:53:13.160Z,44.13
2019-06-26T10:55:42.001Z,43.99
2019-06-26T10:58:10.874Z,44.52
2019-06-26T11:00:40.723Z,44.33
2019-06-26T11:03:09.759Z,44.75
2019-06-26T11:05:39.576Z,43.99
2019-06-26T11:08:10.088Z,44.03
2019-06-26T11:10:38.954Z,43.41
2019-06-26T11:13:09.236Z,43.56
2019-06-26T11:15:38.739Z,44.16
2019-06-26T11:18:07.629Z,44.76
2019-06-26T11:20:36.450Z,44.21
2019-06-26T11:23:05.386Z,45.19
2019-06-26T11:25:34.210Z,44.83
2019-06-26T11:28:03.754Z,44.25
2019-06-26T11:30:33.305Z,43.92
2019-06-26T11:33:02.353Z,43.14
2019-06-26T11:35:31.022Z,43.11
2019-06-26T11:38:02.056Z,42.94
2019-06-26T11:40:30.983Z,44.01
2019-06-26T11:42:59.875Z,44.00
2019-06-26T11:45:29.871Z,44.88
2019-06-26T11:47:58.712Z,44.64
2019-06-26T11:50:27.593Z,44.65
2019-06-26T11:52:58.441Z,43.85
2019-06-26T11:55:27.300Z,44.20
2019-06-26T11:57:56.191Z,43.89
2019-06-26T12:00:25.046Z,43.81
2019-06-26T12:02:53.971Z,43.62
2019-06-26T12:05:22.833Z,42.74
2019-06-26T12:07:51.723Z,43.47
2019-06-26T12:10:20.943Z,43.66
2019-06-26T12:12:51.031Z,43.45
2019-06-26T12:15:19.910Z,43.41
2019-06-26T12:17:48.752Z,43.94
2019-06-26T12:20:19.843Z,44.34
2019-06-26T12:22:46.525Z,44.23
2019-06-26T12:25:15.378Z,44.85
2019-06-26T12:27:44.253Z,44.12
2019-06-26T12:30:14.165Z,43.60
2019-06-26T12:33:01.039Z,43.66
2019-06-26T12:35:12.141Z,43.54
2019-06-26T12:37:41.048Z,43.82
2019-06-26T12:40:10.057Z,43.46
2019-06-26T12:42:39.497Z,42.75
2019-06-26T12:45:08.500Z,43.28
2019-06-26T12:47:37.352Z,44.42
2019-06-26T12:50:06.328Z,42.81
2019-06-26T12:52:35.289Z,43.22
2019-06-26T12:55:04.233Z,42.95
2019-06-26T12:57:33.685Z,44.23
2019-06-26T13:00:03.501Z,43.63
2019-06-26T13:02:32.338Z,43.76
2019-06-26T13:05:01.226Z,45.34
2019-06-26T13:07:31.072Z,45.18
2019-06-26T13:10:00.952Z,45.44
2019-06-26T13:12:29.828Z,45.68
2019-06-26T13:14:59.276Z,45.73
2019-06-26T13:17:29.107Z,45.02
2019-06-26T13:19:59.081Z,44.92
2019-06-26T13:22:27.979Z,45.53
2019-06-26T13:24:56.865Z,46.30
2019-06-26T13:27:25.821Z,47.14
2019-06-26T13:29:55.278Z,47.43
2019-06-26T13:32:24.099Z,46.22
2019-06-26T13:34:52.976Z,46.28
2019-06-26T13:37:21.798Z,46.53
2019-06-26T13:39:50.722Z,46.12
2019-06-26T13:42:19.684Z,45.75
2019-06-26T13:44:48.535Z,46.65
2019-06-26T13:47:18.053Z,47.52
2019-06-26T13:49:46.963Z,47.36
2019-06-26T13:52:15.946Z,47.72
2019-06-26T13:54:44.924Z,47.82
2019-06-26T13:57:15.857Z,47.14
2019-06-26T13:59:43.684Z,47.58
2019-06-26T14:02:12.588Z,48.02
2019-06-26T14:04:42.791Z,48.08
2019-06-26T14:07:14.405Z,48.63
2019-06-26T14:09:43.347Z,47.65
2019-06-26T14:12:12.244Z,48.48
2019-06-26T14:14:56.921Z,49.08
2019-06-26T14:17:11.167Z,48.66
2019-06-26T14:19:40.018Z,48.27
2019-06-26T14:22:08.886Z,48.25
2019-06-26T14:24:38.341Z,49.29
2019-06-26T14:27:07.789Z,48.87
2019-06-26T14:29:36.754Z,48.54
2019-06-26T14:32:05.742Z,48.41
2019-06-26T14:34:43.151Z,48.67
2019-06-26T14:37:18.415Z,48.13
2019-06-26T14:39:47.666Z,48.95
2019-06-26T14:42:17.851Z,50.04
2019-06-26T14:44:46.671Z,48.96
2019-06-26T14:47:15.518Z,49.13
2019-06-26T14:49:44.438Z,48.16
2019-06-26T14:52:13.945Z,48.76
2019-06-26T14:54:44.457Z,47.84
2019-06-26T14:57:13.381Z,47.34
2019-06-26T14:59:42.251Z,47.87
2019-06-26T15:02:11.168Z,46.88
2019-06-26T15:04:46.180Z,46.65
2019-06-26T15:07:13.426Z,45.51
2019-06-26T15:09:44.873Z,45.82
2019-06-26T15:12:13.801Z,45.94
2019-06-26T15:14:42.633Z,45.76
2019-06-26T15:17:11.523Z,44.74
2019-06-26T15:19:40.345Z,46.13
2019-06-26T15:22:09.309Z,45.47
2019-06-26T15:24:38.258Z,45.77
2019-06-26T15:27:07.361Z,46.16
2019-06-26T15:29:36.321Z,45.27
2019-06-26T15:32:05.239Z,46.05
2019-06-26T15:34:34.304Z,45.00
2019-06-26T15:37:04.511Z,44.47
2019-06-26T15:39:33.409Z,45.56
2019-06-26T15:42:02.334Z,44.81
2019-06-26T15:44:31.394Z,45.11
2019-06-26T15:47:01.283Z,45.19
2019-06-26T15:49:30.140Z,45.99
2019-06-26T15:52:14.376Z,46.36
2019-06-26T15:54:33.630Z,46.60
2019-06-26T15:57:02.611Z,45.88
2019-06-26T15:59:31.504Z,46.48
2019-06-26T16:02:01.992Z,46.88
2019-06-26T16:04:30.919Z,46.83
2019-06-26T16:06:59.781Z,46.29
2019-06-26T16:09:28.707Z,46.48
2019-06-26T16:11:58.932Z,46.90
2019-06-26T16:14:26.448Z,47.42
2019-06-26T16:16:56.095Z,47.59
2019-06-26T16:19:25.064Z,47.84
2019-06-26T16:21:55.165Z,47.94
2019-06-26T16:24:24.061Z,47.62
2019-06-26T16:26:53.316Z,47.76
2019-06-26T16:29:22.208Z,46.95
2019-06-26T16:31:51.074Z,47.55
2019-06-26T16:34:19.932Z,48.12
2019-06-26T16:36:48.803Z,45.98
2019-06-26T16:39:17.675Z,47.06
2019-06-26T16:41:48.957Z,47.32
2019-06-26T16:44:15.490Z,47.00
2019-06-26T16:46:44.386Z,46.66
2019-06-26T16:49:13.760Z,46.98
2019-06-26T16:51:43.809Z,46.85
2019-06-26T16:54:12.723Z,47.15
2019-06-26T16:56:41.521Z,47.08
2019-06-26T17:02:33.018Z,48.25
2019-06-26T17:05:02.031Z,47.53
2019-06-26T17:07:31.266Z,47.18
2019-06-26T17:10:00.231Z,47.90
2019-06-26T17:12:29.283Z,47.33
2019-06-26T17:14:58.152Z,47.42
2019-06-26T17:17:27.007Z,48.12
2019-06-26T17:19:55.851Z,47.36
2019-06-26T17:22:24.672Z,47.47
2019-06-26T17:24:53.513Z,47.69
2019-06-26T17:27:22.703Z,48.44
2019-06-26T17:29:51.700Z,47.96
2019-06-26T17:32:21.259Z,47.93
2019-06-26T17:34:50.081Z,48.36
2019-06-26T17:37:19.024Z,48.89
2019-06-26T17:39:47.851Z,49.50
2019-06-26T17:42:16.895Z,49.68
2019-06-26T17:44:45.733Z,48.79
2019-06-26T17:47:14.628Z,48.59
2019-06-26T17:49:44.104Z,50.06
2019-06-26T17:52:12.941Z,50.00
2019-06-26T17:54:41.816Z,50.03
2019-06-26T17:57:10.671Z,50.33
2019-06-26T17:59:46.376Z,51.10
2019-06-26T18:02:15.223Z,51.41
2019-06-26T18:04:44.072Z,51.28
2019-06-26T18:07:12.944Z,50.50
2019-06-26T18:09:41.790Z,51.32
2019-06-26T18:12:10.648Z,51.42
2019-06-26T18:14:43.214Z,51.74
2019-06-26T18:17:21.560Z,52.82
2019-06-26T18:19:40.244Z,52.71
2019-06-26T18:22:09.075Z,52.60
2019-06-26T18:24:38.012Z,52.92
2019-06-26T18:27:06.872Z,53.23
2019-06-26T18:29:35.969Z,53.63
2019-06-26T18:32:04.763Z,53.71
2019-06-26T18:34:33.601Z,54.81
2019-06-26T18:37:02.433Z,55.21
2019-06-26T18:39:31.403Z,54.91
2019-06-26T18:42:01.947Z,55.21
2019-06-26T18:44:30.770Z,54.65
2019-06-26T18:46:59.613Z,55.03
2019-06-26T18:49:28.441Z,54.38
2019-06-26T18:51:57.481Z,54.99
2019-06-26T18:54:26.849Z,54.62
2019-06-26T18:56:55.723Z,55.12
2019-06-26T18:59:24.572Z,55.66
2019-06-26T19:01:54.341Z,54.81
2019-06-26T19:04:23.242Z,54.82
2019-06-26T19:06:52.089Z,55.08
2019-06-26T19:09:21.844Z,55.68
2019-06-26T19:11:50.672Z,55.62
2019-06-26T19:14:19.530Z,55.59
2019-06-26T19:16:48.409Z,56.63
2019-06-26T19:19:17.257Z,56.52
2019-06-26T19:21:46.761Z,57.19
2019-06-26T19:24:15.581Z,57.25
2019-06-26T19:26:47.472Z,57.55
2019-06-26T19:29:16.315Z,58.57
2019-06-26T19:31:45.216Z,57.61
2019-06-26T19:34:14.181Z,58.86
2019-06-26T19:36:50.055Z,58.23
2019-06-26T19:39:12.056Z,58.94
2019-06-26T19:41:41.320Z,59.18
2019-06-26T19:44:10.104Z,59.56
2019-06-26T19:46:41.929Z,59.45
2019-06-26T19:49:10.067Z,59.36
2019-06-26T19:51:38.922Z,59.63
2019-06-26T19:54:07.776Z,59.99
2019-06-26T19:56:37.206Z,60.02
2019-06-26T19:59:06.765Z,59.74
2019-06-26T20:01:35.695Z,60.82
2019-06-26T20:04:04.599Z,60.95
2019-06-26T20:06:33.402Z,61.39
2019-06-26T20:09:03.193Z,61.54
2019-06-26T20:11:33.323Z,61.33
2019-06-26T20:14:02.202Z,62.45
2019-06-26T20:16:31.044Z,62.82
2019-06-26T20:18:59.879Z,62.40
2019-06-26T20:21:28.750Z,62.41
2019-06-26T20:23:58.277Z,63.48
2019-06-26T20:26:28.170Z,63.16
2019-06-26T20:28:57.001Z,62.89
2019-06-26T20:31:25.851Z,63.29
2019-06-26T20:33:54.673Z,62.79
2019-06-26T20:36:23.550Z,64.10
2019-06-26T20:38:52.420Z,64.02
2019-06-26T20:41:21.270Z,64.54
2019-06-26T20:43:50.135Z,64.43
2019-06-26T20:46:19.680Z,64.37
2019-06-26T20:48:48.532Z,64.66
2019-06-26T20:51:20.799Z,65.68
2019-06-26T20:53:47.647Z,65.33
2019-06-26T20:56:16.548Z,65.51
2019-06-26T20:58:46.057Z,66.02
2019-06-26T21:01:15.127Z,66.16
2019-06-26T21:03:44.005Z,65.76
2019-06-26T21:06:13.083Z,66.56
2019-06-26T21:08:41.945Z,65.90
2019-06-26T21:11:10.820Z,66.55
2019-06-26T21:13:40.186Z,67.06
2019-06-26T21:16:10.633Z,66.91
2019-06-26T21:18:39.499Z,65.93
2019-06-26T21:21:08.363Z,66.12
2019-06-26T21:23:37.273Z,66.77
2019-06-26T21:26:06.126Z,67.43
2019-06-26T21:28:34.998Z,66.79
2019-06-26T21:31:03.846Z,67.10
2019-06-26T21:33:33.699Z,66.54
2019-06-26T21:36:02.539Z,67.23
2019-06-26T21:38:31.390Z,67.20
2019-06-26T21:41:00.476Z,68.06
2019-06-26T21:43:29.407Z,67.86
2019-06-26T21:45:58.363Z,68.37
2019-06-26T21:48:28.342Z,68.19
2019-06-26T21:50:57.229Z,68.89
2019-06-26T21:53:26.072Z,68.59
2019-06-26T21:56:00.461Z,68.59
2019-06-26T21:58:35.021Z,68.21
2019-06-26T22:01:09.462Z,69.21
2019-06-26T22:03:45.066Z,69.71
2019-06-26T22:06:13.984Z,69.17
2019-06-26T22:08:44.411Z,70.65
2019-06-26T22:11:13.268Z,70.23
2019-06-26T22:13:42.129Z,70.46
2019-06-26T22:16:10.990Z,70.44
2019-06-26T22:18:39.928Z,70.12
2019-06-26T22:21:09.291Z,70.65
2019-06-26T22:23:38.245Z,70.39
2019-06-26T22:26:07.106Z,70.56
2019-06-26T22:28:35.989Z,70.41
2019-06-26T22:31:04.894Z,70.75
2019-06-26T22:33:33.762Z,71.12
2019-06-26T22:36:02.670Z,70.71
2019-06-26T22:38:31.548Z,71.21
2019-06-26T22:41:02.126Z,71.20
2019-06-26T22:43:31.650Z,71.73
2019-06-26T22:46:00.494Z,71.76
2019-06-26T22:48:29.383Z,71.78
2019-06-26T22:50:58.232Z,72.44
2019-06-26T22:53:27.058Z,72.50
2019-06-26T22:56:07.206Z,71.91
2019-06-26T22:58:25.262Z,71.95
2019-06-26T23:00:54.135Z,72.51
2019-06-26T23:03:23.024Z,72.24
2019-06-26T23:05:51.912Z,72.35
2019-06-26T23:08:20.807Z,73.04
2019-06-26T23:10:49.662Z,72.54
2019-06-26T23:13:18.556Z,73.25
2019-06-26T23:15:47.414Z,72.91
2019-06-26T23:18:16.248Z,73.04
2019-06-26T23:20:45.123Z,73.10
2019-06-26T23:23:13.942Z,72.97
2019-06-26T23:25:42.784Z,72.84
2019-06-26T23:28:13.343Z,72.96
2019-06-26T23:30:43.461Z,72.87
2019-06-26T23:33:12.815Z,73.69
2019-06-26T23:35:42.278Z,73.91
2019-06-26T23:38:11.660Z,74.05
2019-06-26T23:40:40.494Z,73.41
2019-06-26T23:43:09.323Z,73.15
2019-06-26T23:45:39.164Z,72.85
2019-06-26T23:48:11.382Z,73.33
2019-06-26T23:50:41.337Z,72.70
2019-06-26T23:53:10.214Z,73.11
2019-06-26T23:55:39.041Z,73.90
2019-06-26T23:58:09.270Z,72.95
